Time;durP1;ratioP1;P1;durP2;ratioP2;P2;SDS_P1;SDS_P2;PMS_P1;PMS_P2;Temp;Humidity;BMP_temperature;BMP_pressure;BME280_temperature;BME280_humidity;BME280_pressure;Samples;Min_cycle;Max_cycle;Signal;HPM_P1;HPM_P2
2023/09/24 00:01:35;;;;;;;0.20;0.20;;;;;;;13.07;87.18;100417.41;5148176;27;20019;-63
2023/09/24 00:04:00;;;;;;;0.30;0.30;;;;;;;13.01;87.29;100422.75;5148115;27;20110;-64
2023/09/24 00:06:26;;;;;;;0.28;0.28;;;;;;;12.93;86.93;100424.63;5147939;27;20023;-64
2023/09/24 00:08:51;;;;;;;0.52;0.52;;;;;;;12.87;85.74;100442.09;5148057;27;20030;-64
2023/09/24 00:11:17;;;;;;;0.30;0.30;;;;;;;12.78;85.26;100444.84;5148185;27;20459;-64
2023/09/24 00:13:42;;;;;;;0.30;0.30;;;;;;;12.70;83.40;100436.31;5147625;27;20027;-63
2023/09/24 00:16:09;;;;;;;0.30;0.30;;;;;;;12.64;84.57;100440.75;5148011;27;20071;-63
2023/09/24 00:18:35;;;;;;;0.30;0.30;;;;;;;12.58;83.75;100447.78;5147686;27;20075;-64
2023/09/24 00:21:01;;;;;;;0.30;0.30;;;;;;;12.55;84.13;100455.66;5147613;27;20027;-63
2023/09/24 00:23:28;;;;;;;0.30;0.30;;;;;;;12.48;84.77;100450.53;5147669;27;20027;-64
2023/09/24 00:25:57;;;;;;;0.30;0.30;;;;;;;12.43;84.28;100456.72;5147456;27;20047;-63
2023/09/24 00:28:24;;;;;;;0.30;0.30;;;;;;;12.41;84.51;100464.56;5147487;27;20019;-63
2023/09/24 00:30:50;;;;;;;0.30;0.30;;;;;;;12.37;84.20;100468.94;5147630;27;20015;-63
2023/09/24 00:33:16;;;;;;;0.30;0.30;;;;;;;12.40;85.61;100465.41;5147614;27;20038;-63
2023/09/24 00:35:42;;;;;;;0.30;0.30;;;;;;;12.40;86.63;100483.66;5147335;27;20027;-64
2023/09/24 00:38:08;;;;;;;0.30;0.30;;;;;;;12.42;86.91;100478.41;5147226;27;20040;-64
2023/09/24 00:40:34;;;;;;;0.30;0.30;;;;;;;12.41;86.95;100485.38;5147209;27;20040;-64
2023/09/24 00:42:59;;;;;;;0.30;0.30;;;;;;;12.41;85.65;100485.38;5147312;27;20015;-64
2023/09/24 00:45:28;;;;;;;0.30;0.30;;;;;;;12.42;86.53;100486.22;5147090;27;20031;-64
2023/09/24 00:47:56;;;;;;;0.30;0.30;;;;;;;12.48;85.97;100487.00;5147249;27;20044;-64
2023/09/24 00:50:24;;;;;;;1.08;1.08;;;;;;;12.43;84.61;100486.19;5147105;27;20106;-65
2023/09/24 00:52:50;;;;;;;0.28;0.28;;;;;;;12.42;84.48;100478.41;5147256;27;20044;-64
2023/09/24 00:55:17;;;;;;;0.30;0.30;;;;;;;12.44;83.59;100487.06;5147307;27;20034;-63
2023/09/24 00:57:43;;;;;;;0.30;0.30;;;;;;;12.39;83.14;100493.22;5146774;27;20076;-64
2023/09/24 01:00:14;;;;;;;0.30;0.30;;;;;;;12.40;82.64;100496.66;5146994;27;20026;-64
2023/09/24 01:02:40;;;;;;;0.40;0.40;;;;;;;12.39;83.52;100490.63;5147153;27;20048;-63
2023/09/24 01:05:10;;;;;;;23.88;2.15;;;;;;;12.41;82.93;100485.38;5146623;27;20121;-63
2023/09/24 01:07:37;;;;;;;0.40;0.40;;;;;;;12.43;83.57;100498.38;5147039;27;20862;-63
2023/09/24 01:10:02;;;;;;;0.30;0.30;;;;;;;12.46;82.06;100491.34;5146469;27;20053;-64
2023/09/24 01:12:29;;;;;;;0.45;0.45;;;;;;;12.54;83.34;100491.25;5147107;27;20023;-63
2023/09/24 01:14:54;;;;;;;0.30;0.30;;;;;;;12.59;82.88;100498.97;5146838;27;20023;-64
2023/09/24 01:17:23;;;;;;;0.30;0.30;;;;;;;12.65;84.09;100491.09;5146620;27;20038;-63
2023/09/24 01:19:51;;;;;;;0.95;0.65;;;;;;;12.73;83.45;100507.44;5146358;27;20107;-63
2023/09/24 01:22:17;;;;;;;1.25;1.25;;;;;;;12.74;84.22;100508.31;5146794;27;20029;-64
2023/09/24 01:24:42;;;;;;;0.30;0.30;;;;;;;12.79;83.55;100508.25;5146188;27;20131;-63
2023/09/24 01:27:08;;;;;;;0.20;0.20;;;;;;;12.79;83.41;100506.50;5146576;27;20106;-64
2023/09/24 01:29:33;;;;;;;2.63;1.52;;;;;;;12.83;84.21;100522.91;5146290;27;20038;-64
2023/09/24 01:31:59;;;;;;;2.92;1.13;;;;;;;12.80;84.25;100513.44;5146485;27;20023;-63
2023/09/24 01:34:24;;;;;;;5.95;1.02;;;;;;;12.81;85.04;100522.94;5146527;27;20030;-64
2023/09/24 01:36:49;;;;;;;1.25;0.90;;;;;;;12.63;85.79;100495.47;5146043;27;20387;-63
2023/09/24 01:39:19;;;;;;;0.98;0.88;;;;;;;12.71;84.37;100524.88;5146209;27;20023;-63
2023/09/24 01:41:45;;;;;;;2.05;0.98;;;;;;;12.78;84.79;100520.38;5146405;27;20019;-63
2023/09/24 01:44:13;;;;;;;1.10;0.90;;;;;;;12.78;84.16;100525.59;5146455;27;20387;-63
2023/09/24 01:46:38;;;;;;;1.33;0.73;;;;;;;12.80;84.51;100528.19;5146457;27;20053;-64
2023/09/24 01:49:04;;;;;;;1.98;0.98;;;;;;;12.85;85.57;100537.66;5127421;28;20027;-64
2023/09/24 01:51:31;;;;;;;0.73;0.73;;;;;;;12.84;84.28;100524.66;5146076;27;20027;-64
2023/09/24 01:53:59;;;;;;;10.95;1.75;;;;;;;12.80;85.67;100533.41;5145723;27;20019;-63
2023/09/24 01:56:24;;;;;;;1.75;1.13;;;;;;;12.81;86.57;100532.53;5146249;27;20030;-63
2023/09/24 01:58:51;;;;;;;4.68;1.02;;;;;;;12.79;86.18;100527.34;5146009;28;20054;-63
2023/09/24 02:01:17;;;;;;;6.05;1.15;;;;;;;12.74;86.37;100535.22;5146170;28;20044;-64
2023/09/24 02:03:42;;;;;;;1.92;0.88;;;;;;;12.74;87.10;100535.22;5146107;28;20056;-64
2023/09/24 02:06:07;;;;;;;8.07;1.60;;;;;;;12.76;87.95;100538.66;5145882;28;20072;-64
2023/09/24 02:08:33;;;;;;;1.77;1.08;;;;;;;12.75;87.59;100531.72;5145878;28;20023;-63
2023/09/24 02:10:59;;;;;;;1.17;0.70;;;;;;;12.74;87.91;100535.22;5127565;28;20019;-64
2023/09/24 02:13:24;;;;;;;15.88;2.05;;;;;;;12.70;86.88;100530.09;5146103;28;20024;-63
2023/09/24 02:15:49;;;;;;;2.55;1.13;;;;;;;12.73;86.87;100543.91;5146101;28;20027;-63
2023/09/24 02:18:15;;;;;;;2.22;1.13;;;;;;;12.72;86.54;100539.59;5145800;28;20482;-64
2023/09/24 02:20:42;;;;;;;1.38;0.98;;;;;;;12.62;82.94;100546.69;5145826;28;20031;-63
2023/09/24 02:23:08;;;;;;;3.67;1.25;;;;;;;12.70;82.92;100558.75;5146050;28;20094;-64
2023/09/24 02:25:36;;;;;;;2.70;1.02;;;;;;;12.72;84.22;100572.59;5145862;28;20043;-63
2023/09/24 02:28:02;;;;;;;0.68;0.63;;;;;;;12.67;84.59;100558.78;5145928;28;20044;-63
2023/09/24 02:30:29;;;;;;;1.23;0.65;;;;;;;12.67;84.25;100571.81;5146007;28;20066;-64
2023/09/24 02:32:56;;;;;;;3.50;1.13;;;;;;;12.70;84.34;100571.78;5145840;28;20042;-63
2023/09/24 02:35:22;;;;;;;2.22;1.35;;;;;;;12.75;84.13;100581.22;5145716;28;20087;-64
2023/09/24 02:37:52;;;;;;;3.92;1.40;;;;;;;12.74;84.85;100584.72;5145690;28;20030;-63
2023/09/24 02:40:23;;;;;;;1.20;0.82;;;;;;;12.74;85.34;100584.72;5146084;28;20498;-63
2023/09/24 02:42:51;;;;;;;0.60;0.55;;;;;;;12.70;85.39;100582.19;5145776;28;20067;-64
2023/09/24 02:45:17;;;;;;;15.57;1.50;;;;;;;12.69;85.12;100581.31;5127610;28;20024;-64
2023/09/24 02:47:44;;;;;;;1.98;1.13;;;;;;;12.76;86.23;100584.72;5145680;28;20023;-63
2023/09/24 02:50:13;;;;;;;2.28;0.77;;;;;;;12.77;86.69;100589.91;5145374;28;20038;-63
2023/09/24 02:52:42;;;;;;;2.63;1.20;;;;;;;12.74;86.57;100586.47;5145659;28;20079;-63
2023/09/24 02:55:10;;;;;;;1.88;0.90;;;;;;;12.75;86.68;100594.25;5145582;28;20048;-64
2023/09/24 02:57:37;;;;;;;3.38;1.00;;;;;;;12.76;86.75;100589.91;5145567;28;20027;-63
2023/09/24 03:00:10;;;;;;;1.17;1.08;;;;;;;12.77;87.75;100602.03;5145452;28;20037;-63
2023/09/24 03:02:38;;;;;;;1.08;0.63;;;;;;;12.74;87.00;100594.28;5145591;28;20047;-64
2023/09/24 03:05:06;;;;;;;0.47;0.47;;;;;;;12.76;86.02;100603.78;5145764;27;20023;-62
2023/09/24 03:07:31;;;;;;;5.03;0.60;;;;;;;12.73;86.19;100606.44;5149175;27;20027;-62
2023/09/24 03:09:57;;;;;;;1.25;0.50;;;;;;;12.72;85.03;100596.03;5149190;27;20026;-64
2023/09/24 03:12:22;;;;;;;0.38;0.38;;;;;;;12.75;84.68;100585.56;5149243;27;20030;-64
2023/09/24 03:14:47;;;;;;;0.68;0.55;;;;;;;12.75;83.78;100603.81;5148956;27;20036;-64
2023/09/24 03:17:13;;;;;;;1.92;1.17;;;;;;;12.72;84.80;100611.66;5149024;27;20023;-63
2023/09/24 03:19:38;;;;;;;1.30;0.77;;;;;;;12.70;84.61;100611.69;5148883;27;20019;-63
2023/09/24 03:22:04;;;;;;;3.65;1.48;;;;;;;12.64;84.62;100603.97;5148855;27;20038;-64
2023/09/24 03:24:29;;;;;;;0.60;0.60;;;;;;;12.62;83.40;100611.78;5148570;27;20039;-63
2023/09/24 03:26:54;;;;;;;1.13;0.82;;;;;;;12.60;83.42;100616.16;5148936;27;20055;-63
2023/09/24 03:29:19;;;;;;;0.60;0.60;;;;;;;12.60;84.22;100617.91;5148897;27;20038;-63
2023/09/24 03:31:45;;;;;;;3.22;1.42;;;;;;;12.51;83.65;100624.09;5148716;27;20064;-63
2023/09/24 03:34:10;;;;;;;1.45;0.90;;;;;;;12.43;83.75;100629.41;5148824;27;20026;-64
2023/09/24 03:36:37;;;;;;;0.30;0.30;;;;;;;12.43;84.53;100625.97;5148704;27;20019;-63
2023/09/24 03:39:03;;;;;;;13.55;1.13;;;;;;;12.36;85.47;100631.22;5148253;27;20462;-63
2023/09/24 03:41:28;;;;;;;1.67;0.80;;;;;;;12.29;85.37;100634.78;5148641;27;20015;-63
2023/09/24 03:43:53;;;;;;;1.58;0.80;;;;;;;12.29;85.76;100639.13;5148710;27;20015;-63
2023/09/24 03:46:19;;;;;;;1.30;0.68;;;;;;;12.24;86.17;100649.59;5148562;27;20041;-64
2023/09/24 03:48:44;;;;;;;0.47;0.47;;;;;;;12.21;86.07;100644.41;5148291;27;20419;-64
2023/09/24 03:51:10;;;;;;;5.93;1.80;;;;;;;12.21;85.84;100654.84;5148366;27;20027;-63
2023/09/24 03:53:36;;;;;;;1.75;0.95;;;;;;;12.21;86.20;100658.31;5148483;27;20023;-64
2023/09/24 03:56:01;;;;;;;0.98;0.90;;;;;;;12.18;85.91;100660.94;5148150;27;20166;-64
2023/09/24 03:58:27;;;;;;;3.33;1.02;;;;;;;12.16;86.38;100661.84;5148356;27;20019;-63
2023/09/24 04:00:53;;;;;;;5.30;1.00;;;;;;;12.11;86.77;100654.94;5148027;27;20046;-64
2023/09/24 04:03:19;;;;;;;0.85;0.60;;;;;;;12.12;87.64;100669.66;5148183;27;20026;-64
2023/09/24 04:05:44;;;;;;;1.83;0.93;;;;;;;12.09;87.93;100671.47;5148139;27;20019;-63
2023/09/24 04:08:10;;;;;;;0.52;0.50;;;;;;;12.11;87.07;100677.47;5147884;27;20019;-64
2023/09/24 04:10:35;;;;;;;0.75;0.68;;;;;;;12.08;86.93;100681.00;5147937;27;20027;-64
2023/09/24 04:13:00;;;;;;;1.05;0.70;;;;;;;12.10;87.53;100687.06;5147800;27;20114;-64
2023/09/24 04:15:28;;;;;;;1.17;0.63;;;;;;;12.13;85.96;100694.81;5147887;27;20075;-64
2023/09/24 04:17:57;;;;;;;4.93;0.95;;;;;;;12.15;87.13;100694.81;5147566;27;20019;-63
2023/09/24 04:20:25;;;;;;;0.50;0.50;;;;;;;12.12;86.99;100702.66;5147371;27;20031;-63
2023/09/24 04:22:51;;;;;;;5.70;0.77;;;;;;;12.10;86.57;100704.41;5147731;27;20011;-63
2023/09/24 04:25:20;;;;;;;0.50;0.50;;;;;;;12.15;87.54;100707.81;5129174;27;20081;-64
2023/09/24 04:27:46;;;;;;;1.65;1.02;;;;;;;12.14;88.03;100706.94;5147677;27;20051;-63
2023/09/24 04:30:15;;;;;;;1.88;0.77;;;;;;;12.14;87.44;100709.56;5147709;27;20033;-64
2023/09/24 04:32:53;;;;;;;1.05;0.50;;;;;;;12.11;87.87;100725.19;5147524;27;20110;-63
2023/09/24 04:35:19;;;;;;;4.47;1.63;;;;;;;12.12;88.10;100711.31;5147404;27;20030;-63
2023/09/24 04:37:45;;;;;;;3.10;1.42;;;;;;;12.12;87.29;100728.69;5147513;27;20023;-62
2023/09/24 04:40:12;;;;;;;2.45;1.90;;;;;;;12.13;87.76;100726.06;5147478;27;20080;-65
2023/09/24 04:42:38;;;;;;;0.47;0.47;;;;;;;12.18;88.25;100732.94;5147366;27;20019;-64
2023/09/24 04:45:06;;;;;;;0.52;0.52;;;;;;;12.12;87.26;100739.94;5147216;27;20062;-64
2023/09/24 04:47:31;;;;;;;6.20;0.88;;;;;;;12.14;87.51;100751.19;5147153;27;20109;-62
2023/09/24 04:49:57;;;;;;;0.50;0.50;;;;;;;12.12;86.60;100744.28;5128580;27;20027;-63
2023/09/24 04:52:23;;;;;;;0.50;0.50;;;;;;;12.06;86.61;100750.38;5147045;27;20015;-64
2023/09/24 04:54:48;;;;;;;4.88;0.65;;;;;;;12.06;86.70;100750.38;5147115;27;20023;-64
2023/09/24 04:57:13;;;;;;;1.38;1.27;;;;;;;11.97;87.01;100746.13;5147169;27;20046;-64
2023/09/24 04:59:39;;;;;;;3.67;1.00;;;;;;;11.95;87.24;100763.47;5146950;27;20026;-63
2023/09/24 05:02:05;;;;;;;4.13;1.67;;;;;;;11.90;86.40;100770.47;5146998;27;20019;-63
2023/09/24 05:04:32;;;;;;;1.13;0.75;;;;;;;11.93;87.01;100774.78;5146922;27;20023;-64
2023/09/24 05:06:57;;;;;;;0.65;0.60;;;;;;;11.86;87.56;100773.97;5146780;27;20065;-63
2023/09/24 05:09:23;;;;;;;0.73;0.70;;;;;;;11.83;86.27;100792.19;5146940;27;20023;-64
2023/09/24 05:11:49;;;;;;;2.97;0.95;;;;;;;11.87;86.50;100786.09;5146893;27;20060;-64
2023/09/24 05:14:14;;;;;;;0.70;0.70;;;;;;;11.91;87.08;100782.59;5146651;27;20026;-64
2023/09/24 05:16:39;;;;;;;0.80;0.73;;;;;;;11.97;87.50;100786.88;5146806;27;20023;-64
2023/09/24 05:19:06;;;;;;;2.85;0.80;;;;;;;12.07;87.83;100777.25;5146506;27;20023;-64
2023/09/24 05:21:32;;;;;;;1.10;0.65;;;;;;;12.10;87.57;100777.28;5146678;27;20106;-64
2023/09/24 05:23:57;;;;;;;1.13;0.98;;;;;;;12.26;87.40;100799.69;5146390;27;20399;-64
2023/09/24 05:26:23;;;;;;;2.15;0.95;;;;;;;12.30;87.96;100810.91;5146676;27;20083;-64
2023/09/24 05:28:48;;;;;;;2.65;0.82;;;;;;;12.36;88.44;100800.44;5145535;27;20475;-64
2023/09/24 05:31:16;;;;;;;1.17;0.75;;;;;;;12.39;88.45;100808.25;5146615;27;20023;-63
2023/09/24 05:33:41;;;;;;;1.75;1.25;;;;;;;12.50;88.38;100815.09;5146474;27;20027;-64
2023/09/24 05:36:08;;;;;;;1.02;0.80;;;;;;;12.72;89.72;100820.06;5146509;27;20047;-63
2023/09/24 05:38:33;;;;;;;1.70;0.75;;;;;;;12.96;89.48;100820.66;5146561;27;20023;-64
2023/09/24 05:40:59;;;;;;;2.30;1.35;;;;;;;13.25;90.83;100824.66;5146194;27;20079;-64
2023/09/24 05:43:25;;;;;;;1.15;1.08;;;;;;;13.60;91.26;100833.78;5146406;27;20523;-64
2023/09/24 05:45:50;;;;;;;0.90;0.57;;;;;;;13.92;89.78;100830.72;5146401;27;20019;-65
2023/09/24 05:48:17;;;;;;;1.30;0.93;;;;;;;14.18;88.58;100842.50;5146291;27;20026;-64
2023/09/24 05:50:43;;;;;;;3.97;0.85;;;;;;;14.43;87.29;100849.91;5146113;27;20023;-64
2023/09/24 05:53:10;;;;;;;4.22;1.42;;;;;;;14.72;87.80;100851.13;5146393;27;20078;-64
2023/09/24 05:55:35;;;;;;;3.92;1.27;;;;;;;15.01;89.07;100854.13;5146341;27;20023;-64
2023/09/24 05:58:00;;;;;;;3.13;1.58;;;;;;;15.09;87.54;100863.53;5146176;27;20051;-63
2023/09/24 06:00:28;;;;;;;0.98;0.60;;;;;;;15.36;86.59;100853.41;5146345;28;20023;-64
2023/09/24 06:02:54;;;;;;;3.20;0.70;;;;;;;15.51;85.94;100856.56;5146322;28;20424;-64
2023/09/24 06:05:19;;;;;;;0.93;0.70;;;;;;;15.72;84.90;100863.06;5145939;28;20027;-64
2023/09/24 06:07:44;;;;;;;1.10;0.75;;;;;;;15.95;88.08;100866.06;5146195;28;20026;-64
2023/09/24 06:10:10;;;;;;;0.65;0.55;;;;;;;16.26;90.31;100859.25;5127988;28;20026;-65
2023/09/24 06:12:35;;;;;;;1.50;1.00;;;;;;;16.48;88.35;100854.34;5146078;28;20029;-65
2023/09/24 06:15:01;;;;;;;1.27;0.85;;;;;;;16.52;87.15;100871.69;5146003;28;20015;-65
2023/09/24 06:17:28;;;;;;;1.50;0.90;;;;;;;16.35;85.73;100864.25;5146117;28;20019;-64
2023/09/24 06:19:55;;;;;;;2.40;0.73;;;;;;;16.27;86.38;100879.31;5145876;28;20023;-64
2023/09/24 06:22:22;;;;;;;3.80;0.98;;;;;;;16.12;85.50;100891.03;5145824;28;20106;-64
2023/09/24 06:24:49;;;;;;;1.98;0.93;;;;;;;15.93;85.53;100894.03;5145795;28;20047;-63
2023/09/24 06:27:16;;;;;;;1.60;0.90;;;;;;;15.79;85.19;100892.59;5145925;28;20019;-64
2023/09/24 06:29:41;;;;;;;0.90;0.70;;;;;;;15.59;85.62;100909.59;5145881;28;20015;-65
2023/09/24 06:32:06;;;;;;;1.80;0.55;;;;;;;15.40;85.78;100916.13;5146068;28;20044;-64
2023/09/24 06:34:35;;;;;;;0.85;0.60;;;;;;;15.22;84.33;100915.59;5145872;28;20034;-64
2023/09/24 06:37:00;;;;;;;1.35;0.75;;;;;;;15.00;85.21;100923.84;5146015;28;20037;-64
2023/09/24 06:39:26;;;;;;;7.50;1.15;;;;;;;14.85;82.70;100928.47;5146812;27;20027;-64
2023/09/24 06:41:51;;;;;;;0.85;0.73;;;;;;;14.75;84.78;100925.13;5149906;27;20046;-63
2023/09/24 06:44:22;;;;;;;5.72;1.02;;;;;;;14.76;84.24;100931.19;5149600;27;20031;-64
2023/09/24 06:46:47;;;;;;;2.65;0.93;;;;;;;14.63;83.50;100941.03;5149806;27;20023;-64
2023/09/24 06:49:12;;;;;;;0.60;0.52;;;;;;;14.59;84.50;100941.94;5149563;27;20012;-64
2023/09/24 06:51:38;;;;;;;1.73;0.65;;;;;;;14.58;85.61;100951.56;5149493;27;20019;-63
2023/09/24 06:54:03;;;;;;;1.05;0.50;;;;;;;14.58;86.37;100954.16;5149704;27;20022;-64
2023/09/24 06:56:29;;;;;;;2.50;0.75;;;;;;;14.54;86.25;100956.81;5149355;27;20023;-64
2023/09/24 06:58:54;;;;;;;1.85;0.68;;;;;;;14.55;84.86;100967.28;5149242;27;20030;-63
2023/09/24 07:01:19;;;;;;;3.30;0.70;;;;;;;14.53;84.02;100960.34;5130517;27;20071;-63
2023/09/24 07:03:47;;;;;;;2.45;1.05;;;;;;;14.42;84.72;100960.50;5149262;27;20083;-64
2023/09/24 07:06:15;;;;;;;2.83;1.05;;;;;;;14.43;85.83;100972.69;5148905;27;20031;-64
2023/09/24 07:08:40;;;;;;;2.08;0.77;;;;;;;14.39;85.67;100977.09;5149236;27;20072;-64
2023/09/24 07:11:24;;;;;;;7.35;0.90;;;;;;;14.37;85.55;100977.13;5149185;27;20027;-64
2023/09/24 07:13:49;;;;;;;0.75;0.70;;;;;;;14.31;85.04;100979.84;5148886;27;20035;-65
2023/09/24 07:16:15;;;;;;;0.65;0.65;;;;;;;14.25;84.27;100962.50;5149191;27;20022;-64
2023/09/24 07:18:41;;;;;;;0.88;0.73;;;;;;;14.29;84.69;100983.34;5130250;27;20441;-65
2023/09/24 07:21:06;;;;;;;1.30;0.80;;;;;;;14.48;85.83;101002.22;5148873;27;20023;-64
2023/09/24 07:23:32;;;;;;;1.90;1.20;;;;;;;14.61;85.78;100995.94;5148972;27;20208;-65
2023/09/24 07:25:57;;;;;;;2.13;1.45;;;;;;;14.69;84.66;101008.00;5148629;27;20035;-63
2023/09/24 07:28:24;;;;;;;6.95;1.60;;;;;;;14.73;83.60;101007.91;5148515;27;20020;-64
2023/09/24 07:30:53;;;;;;;5.15;1.13;;;;;;;14.74;81.81;101020.09;5148838;27;20026;-65
2023/09/24 07:33:20;;;;;;;2.13;0.98;;;;;;;14.91;82.17;101005.06;5148886;27;20027;-64
2023/09/24 07:35:46;;;;;;;2.17;1.10;;;;;;;14.89;80.88;101009.47;5148394;27;20023;-64
2023/09/24 07:38:11;;;;;;;1.88;1.55;;;;;;;14.80;80.83;101018.31;5148536;27;20053;-70
2023/09/24 07:40:37;;;;;;;3.97;1.02;;;;;;;14.74;81.85;101021.84;5148423;27;20027;-65
2023/09/24 07:43:03;;;;;;;3.67;0.98;;;;;;;14.72;80.79;101021.88;5129844;27;20025;-66
2023/09/24 07:45:29;;;;;;;4.95;1.35;;;;;;;14.60;80.55;101017.69;5148493;27;20119;-67
2023/09/24 07:47:55;;;;;;;4.30;1.58;;;;;;;14.45;81.07;101028.38;5147992;27;20483;-66
2023/09/24 07:50:20;;;;;;;1.23;1.00;;;;;;;14.23;82.48;101028.69;5147643;27;20015;-65
2023/09/24 07:52:45;;;;;;;1.48;1.00;;;;;;;14.16;82.92;101019.19;5129116;27;20489;-65
2023/09/24 07:55:11;;;;;;;1.70;1.13;;;;;;;14.15;82.50;101022.72;5148065;27;20019;-66
2023/09/24 07:57:36;;;;;;;2.65;1.08;;;;;;;14.07;82.80;101025.44;5148146;27;20027;-64
2023/09/24 08:00:02;;;;;;;3.83;1.10;;;;;;;14.10;83.74;101022.78;5147906;27;20095;-63
2023/09/24 08:02:28;;;;;;;3.35;1.10;;;;;;;14.15;83.20;101027.94;5148058;27;20023;-64
2023/09/24 08:04:53;;;;;;;1.92;0.93;;;;;;;14.26;81.52;101031.28;5147921;27;20030;-63
2023/09/24 08:07:18;;;;;;;3.10;1.52;;;;;;;14.41;81.27;101027.56;5147684;27;20030;-63
2023/09/24 08:09:44;;;;;;;3.50;1.50;;;;;;;14.73;82.91;101046.25;5147798;27;20068;-63
2023/09/24 08:12:09;;;;;;;1.92;1.20;;;;;;;14.94;83.46;101046.81;5147506;27;20023;-64
2023/09/24 08:14:34;;;;;;;1.92;0.88;;;;;;;15.13;82.69;101043.94;5147512;27;20025;-63
2023/09/24 08:17:00;;;;;;;4.65;1.35;;;;;;;15.22;83.46;101044.59;5147517;27;20019;-63
2023/09/24 08:19:30;;;;;;;2.40;0.98;;;;;;;15.38;81.63;101057.44;5147432;27;20031;-64
2023/09/24 08:21:55;;;;;;;2.58;1.25;;;;;;;15.40;80.94;101057.41;5147252;27;20554;-63
2023/09/24 08:24:21;;;;;;;2.83;1.00;;;;;;;15.45;81.50;101071.25;5147261;27;20082;-64
2023/09/24 08:26:46;;;;;;;1.73;1.15;;;;;;;15.40;80.12;101076.56;5147547;27;20030;-63
2023/09/24 08:29:11;;;;;;;12.20;1.25;;;;;;;15.44;79.18;101078.25;5147258;27;20122;-63
2023/09/24 08:31:37;;;;;;;9.40;1.40;;;;;;;15.50;78.93;101090.34;5147303;27;20048;-63
2023/09/24 08:34:03;;;;;;;2.83;1.67;;;;;;;15.47;78.32;101090.41;5147166;27;20023;-63
2023/09/24 08:36:29;;;;;;;3.67;1.75;;;;;;;15.40;78.80;101094.03;5147163;27;20051;-63
2023/09/24 08:38:56;;;;;;;3.17;1.50;;;;;;;15.40;76.73;101107.94;5147173;27;20122;-63
2023/09/24 08:41:21;;;;;;;4.57;1.33;;;;;;;15.29;74.61;101105.53;5147043;27;20023;-63
2023/09/24 08:43:47;;;;;;;1.30;1.00;;;;;;;15.46;76.55;101105.22;5147182;27;20023;-63
2023/09/24 08:46:13;;;;;;;2.10;1.25;;;;;;;15.60;75.84;101102.38;5146979;27;20027;-63
2023/09/24 08:48:39;;;;;;;5.70;1.98;;;;;;;15.63;75.52;101111.06;5146963;27;20026;-62
2023/09/24 08:51:07;;;;;;;3.42;1.38;;;;;;;15.58;74.87;101108.53;5146752;27;20023;-63
2023/09/24 08:53:34;;;;;;;5.38;1.40;;;;;;;15.46;75.80;101117.47;5146647;27;20023;-64
2023/09/24 08:55:59;;;;;;;14.63;2.53;;;;;;;15.29;74.72;101134.31;5147348;27;20459;-63
2023/09/24 08:58:25;;;;;;;2.63;1.38;;;;;;;15.11;74.69;101127.63;5146870;27;20487;-62
2023/09/24 09:00:51;;;;;;;6.72;2.10;;;;;;;14.98;75.12;101145.25;5146718;27;20019;-63
2023/09/24 09:03:17;;;;;;;1.73;1.15;;;;;;;14.87;76.10;101135.81;5146809;27;20067;-63
2023/09/24 09:05:44;;;;;;;3.95;1.50;;;;;;;14.67;75.60;101140.41;5146456;27;20034;-63
2023/09/24 09:08:10;;;;;;;2.58;1.38;;;;;;;14.50;75.56;101147.59;5146748;27;20023;-67
2023/09/24 09:10:36;;;;;;;8.02;1.77;;;;;;;14.36;75.48;101149.56;5146836;27;20019;-63
2023/09/24 09:13:07;;;;;;;2.65;1.58;;;;;;;14.24;74.73;101147.94;5146719;27;20106;-64
2023/09/24 09:15:33;;;;;;;2.95;1.88;;;;;;;14.20;77.16;101151.47;5146477;27;20061;-63
2023/09/24 09:18:00;;;;;;;8.75;2.30;;;;;;;14.17;76.90;101152.34;5146550;27;20019;-63
2023/09/24 09:20:43;;;;;;;5.75;2.35;;;;;;;14.15;77.04;101154.16;5146253;27;20019;-62
2023/09/24 09:23:18;;;;;;;4.05;2.03;;;;;;;14.19;77.77;101160.16;5146404;27;20027;-63
2023/09/24 09:25:49;;;;;;;7.65;2.15;;;;;;;14.09;78.54;101149.84;5146235;27;20281;-62
2023/09/24 09:28:29;;;;;;;3.70;2.53;;;;;;;14.25;79.68;101173.16;5146383;27;20043;-61
2023/09/24 09:31:01;;;;;;;2.05;1.60;;;;;;;14.35;80.36;101166.09;5146548;27;20322;-62
2023/09/24 09:33:27;;;;;;;;;;;;;;;14.42;78.90;101172.09;5146652;27;20034;-66
2023/09/24 09:35:52;;;;;;;4.40;2.30;;;;;;;14.54;79.81;101182.41;5146300;27;19911;-64
2023/09/24 09:38:18;;;;;;;8.05;2.00;;;;;;;14.63;80.22;101171.81;5146018;27;20050;-64
2023/09/24 09:40:43;;;;;;;4.88;2.10;;;;;;;14.77;81.54;101180.38;5146294;27;20029;-63
2023/09/24 09:43:14;;;;;;;3.17;1.90;;;;;;;14.89;79.01;101176.78;5146409;27;20023;-64
2023/09/24 09:45:43;;;;;;;12.40;2.50;;;;;;;15.15;76.41;101178.13;5146454;27;20075;-63
2023/09/24 09:48:13;;;;;;;15.57;2.40;;;;;;;15.78;75.64;101184.09;5127757;28;20023;-64
2023/09/24 09:50:43;;;;;;;3.75;2.17;;;;;;;16.59;73.71;101182.56;5146084;27;20034;-66
2023/09/24 09:53:10;;;;;;;3.85;1.65;;;;;;;16.80;72.07;101184.75;5146175;27;20004;-75
2023/09/24 09:55:42;;;;;;;2.40;1.65;;;;;;;17.63;69.62;101182.81;5146152;27;20558;-70
2023/09/24 09:58:09;;;;;;;3.25;2.15;;;;;;;19.56;67.65;101187.75;5127657;27;20424;-69
2023/09/24 10:00:35;;;;;;;8.32;1.80;;;;;;;21.32;58.80;101191.88;5145767;27;20097;-68
2023/09/24 10:03:01;;;;;;;8.88;2.08;;;;;;;22.46;58.22;101189.66;5146063;28;20080;-68
2023/09/24 10:05:27;;;;;;;15.07;2.65;;;;;;;22.72;57.69;101193.75;5145891;28;20023;-68
2023/09/24 10:07:53;;;;;;;4.82;2.33;;;;;;;22.10;57.96;101191.25;5146091;28;20114;-68
2023/09/24 10:10:31;;;;;;;5.65;2.15;;;;;;;21.21;59.09;101197.63;5145933;28;20068;-69
2023/09/24 10:13:04;;;;;;;4.68;2.22;;;;;;;20.30;54.15;101207.16;5145948;28;20053;-69
2023/09/24 10:15:30;;;;;;;6.35;2.15;;;;;;;19.55;56.13;101200.97;5148570;27;20536;-67
2023/09/24 10:18:08;;;;;;;2.90;1.65;;;;;;;18.92;58.21;101207.31;5150157;27;20023;-69
2023/09/24 10:20:49;;;;;;;3.80;2.08;;;;;;;18.98;57.04;101209.75;5131416;27;20023;-69
2023/09/24 10:23:30;;;;;;;3.05;1.73;;;;;;;20.43;56.23;101207.56;5150328;27;20019;-68
2023/09/24 10:26:01;;;;;;;2.30;1.60;;;;;;;21.94;58.49;101214.88;5149815;27;20043;-69
2023/09/24 10:28:51;;;;;;;7.50;2.40;;;;;;;23.15;51.30;101209.38;5131441;27;20030;-68
2023/09/24 10:31:20;;;;;;;11.05;2.92;;;;;;;23.86;50.46;101213.84;5150055;27;20037;-67
2023/09/24 10:34:01;;;;;;;2.28;1.88;;;;;;;24.50;49.22;101216.69;5149880;27;20023;-68
2023/09/24 10:36:33;;;;;;;4.90;2.80;;;;;;;24.91;47.64;101229.56;5150098;27;20023;-68
2023/09/24 10:39:05;;;;;;;2.22;1.88;;;;;;;25.18;47.10;101224.47;5150305;27;20038;-69
2023/09/24 10:41:32;;;;;;;2.15;1.70;;;;;;;25.40;45.11;101223.22;5149995;27;20034;-66
2023/09/24 10:44:26;;;;;;;2.47;1.80;;;;;;;25.25;45.92;101231.19;5149519;27;20097;-71
2023/09/24 10:46:52;;;;;;;4.72;1.88;;;;;;;25.33;43.53;101235.19;5149854;27;20019;-72
2023/09/24 10:49:24;;;;;;;3.53;1.25;;;;;;;25.27;44.04;101238.19;5149470;27;20019;-67
2023/09/24 10:52:00;;;;;;;4.38;2.20;;;;;;;25.51;46.25;101238.56;5114252;27;20056;-68
2023/09/24 10:54:27;;;;;;;3.95;1.80;;;;;;;25.92;43.51;101236.19;5149601;27;20060;-69
2023/09/24 10:56:52;;;;;;;3.30;2.22;;;;;;;26.06;41.19;101233.56;5130978;27;20023;-66
2023/09/24 10:59:32;;;;;;;2.53;1.40;;;;;;;25.97;43.61;101239.44;5130854;27;20497;-63
2023/09/24 11:01:58;;;;;;;4.88;2.83;;;;;;;25.34;40.68;101244.84;5149573;27;20034;-66
2023/09/24 11:04:25;;;;;;;2.92;1.80;;;;;;;25.37;41.52;101244.66;5149293;27;20410;-65
2023/09/24 11:06:50;;;;;;;2.30;1.88;;;;;;;26.02;41.45;101249.81;5149027;27;20034;-66
2023/09/24 11:09:21;;;;;;;7.13;2.28;;;;;;;26.46;39.02;101251.56;5149017;27;20043;-65
2023/09/24 11:11:47;;;;;;;2.17;1.20;;;;;;;26.50;37.89;101246.91;5149192;27;20095;-65
2023/09/24 11:14:23;;;;;;;3.58;1.98;;;;;;;26.53;39.13;101261.81;5149090;27;20063;-65
2023/09/24 11:16:53;;;;;;;2.10;1.52;;;;;;;26.23;37.21;101264.44;5149217;27;20029;-65
2023/09/24 11:19:49;;;;;;;2.55;1.70;;;;;;;26.14;40.96;101266.81;5149017;27;20019;-65
2023/09/24 11:22:18;;;;;;;2.75;1.98;;;;;;;25.68;37.07;101266.84;5127092;27;20023;-67
2023/09/24 11:24:44;;;;;;;1.98;1.38;;;;;;;24.94;39.81;101264.78;5148736;27;20039;-67